Time;durP1;ratioP1;P1;durP2;ratioP2;P2;SDS_P1;SDS_P2;PMS_P1;PMS_P2;Temp;Humidity;BMP_temperature;BMP_pressure;BME280_temperature;BME280_humidity;BME280_pressure;Samples;Min_cycle;Max_cycle;Signal;HPM_P1;HPM_P2
2021/04/09 00:01:26;;;;;;;8.40;4.13;;;1.40;99.90;;;;;;5050083;28;20480;-76
2021/04/09 00:03:54;;;;;;;7.73;4.20;;;1.40;99.90;;;;;;5049551;28;20396;-77
2021/04/09 00:06:20;;;;;;;8.43;4.77;;;1.40;99.90;;;;;;5048324;28;20038;-78
2021/04/09 00:08:45;;;;;;;8.70;5.30;;;1.40;99.90;;;;;;5049651;28;20110;-77
2021/04/09 00:11:12;;;;;;;7.57;4.57;;;1.40;99.90;;;;;;5046785;28;20029;-76
2021/04/09 00:13:38;;;;;;;6.40;4.30;;;1.30;99.90;;;;;;5047715;28;20058;-76
2021/04/09 00:16:03;;;;;;;9.60;4.10;;;1.30;99.90;;;;;;5049647;28;20098;-77
2021/04/09 00:18:29;;;;;;;5.33;3.57;;;1.30;99.90;;;;;;5049160;28;20107;-76
2021/04/09 00:20:54;;;;;;;7.23;3.90;;;1.40;99.90;;;;;;5047680;28;20094;-76
2021/04/09 00:23:20;;;;;;;5.97;3.67;;;1.40;99.90;;;;;;5050293;28;20354;-77
2021/04/09 00:25:45;;;;;;;7.80;3.90;;;1.40;99.90;;;;;;5049618;28;20048;-77
2021/04/09 00:28:11;;;;;;;5.17;3.40;;;1.40;99.90;;;;;;5052200;28;20473;-77
2021/04/09 00:30:36;;;;;;;5.17;3.33;;;1.40;99.90;;;;;;5048797;28;20516;-75
2021/04/09 00:33:02;;;;;;;5.53;3.27;;;1.40;99.90;;;;;;5049844;28;20044;-77
2021/04/09 00:35:28;;;;;;;7.10;3.77;;;1.50;99.90;;;;;;5047591;28;20040;-77
2021/04/09 00:37:54;;;;;;;5.93;3.07;;;1.40;99.90;;;;;;5048693;28;20033;-76
2021/04/09 00:40:20;;;;;;;7.87;3.93;;;1.50;99.90;;;;;;5044720;28;20061;-78
2021/04/09 00:42:46;;;;;;;5.90;3.50;;;1.50;99.90;;;;;;5048770;28;20036;-75
2021/04/09 00:45:14;;;;;;;6.63;3.83;;;1.40;99.90;;;;;;5049557;28;20032;-78
2021/04/09 00:47:40;;;;;;;6.47;3.70;;;1.50;99.90;;;;;;5048750;28;20028;-76
2021/04/09 00:50:06;;;;;;;6.10;3.50;;;1.40;99.90;;;;;;5047204;28;20040;-76
2021/04/09 00:52:33;;;;;;;6.20;3.50;;;1.40;99.90;;;;;;5048218;28;20044;-76
2021/04/09 00:55:00;;;;;;;8.37;4.20;;;1.40;99.90;;;;;;5048850;28;20068;-76
2021/04/09 00:57:26;;;;;;;6.37;4.00;;;1.40;99.90;;;;;;5048910;28;20119;-76
2021/04/09 00:59:52;;;;;;;8.63;3.67;;;1.30;99.90;;;;;;5048277;28;20071;-76
2021/04/09 01:02:18;;;;;;;9.40;3.77;;;1.30;99.90;;;;;;5044110;28;20116;-76
2021/04/09 01:04:45;;;;;;;6.63;3.43;;;1.20;99.90;;;;;;5042942;28;20029;-77
2021/04/09 01:07:10;;;;;;;5.40;3.40;;;1.20;99.90;;;;;;5047606;28;20036;-77
2021/04/09 01:09:36;;;;;;;6.60;3.40;;;1.10;99.90;;;;;;5047401;28;20435;-75
2021/04/09 01:12:05;;;;;;;6.03;3.40;;;1.10;99.90;;;;;;5041409;28;20120;-76
2021/04/09 01:14:33;;;;;;;6.38;3.45;;;1.10;99.90;;;;;;5047553;28;20032;-77
2021/04/09 01:17:09;;;;;;;7.53;3.60;;;1.10;99.90;;;;;;5047873;28;20044;-77
2021/04/09 01:20:00;;;;;;;8.30;3.57;;;1.00;99.90;;;;;;5042873;28;20053;-77
2021/04/09 01:22:29;;;;;;;6.70;3.63;;;1.00;99.90;;;;;;5048530;28;20075;-76
2021/04/09 01:25:42;;;;;;;8.20;3.65;;;1.00;99.90;;;;;;5047149;28;20488;-75
2021/04/09 01:28:17;;;;;;;6.33;3.80;;;1.00;99.90;;;;;;4946889;29;20550;-76
2021/04/09 01:31:14;;;;;;;6.90;3.50;;;1.00;99.90;;;;;;4948416;28;20027;-77
2021/04/09 01:33:44;;;;;;;5.83;3.43;;;1.00;99.90;;;;;;4871702;29;20056;-76
2021/04/09 01:36:16;;;;;;;7.32;3.38;;;1.00;99.90;;;;;;4873538;29;20105;-77
2021/04/09 01:38:46;;;;;;;5.07;3.47;;;0.90;99.90;;;;;;4860805;29;20059;-75
2021/04/09 01:41:13;;;;;;;6.17;3.50;;;0.90;99.90;;;;;;4873909;29;20033;-76
2021/04/09 01:43:42;;;;;;;9.50;3.60;;;0.90;99.90;;;;;;4875637;29;20088;-77
2021/04/09 01:46:10;;;;;;;6.55;3.33;;;0.90;99.90;;;;;;4872089;29;20044;-77
2021/04/09 01:48:41;;;;;;;6.67;3.87;;;0.90;99.90;;;;;;4872974;29;20053;-77
2021/04/09 01:51:12;;;;;;;7.53;3.40;;;0.90;99.90;;;;;;4877345;29;20080;-76
2021/04/09 01:53:41;;;;;;;6.57;3.23;;;0.80;99.90;;;;;;4872536;29;20044;-77
2021/04/09 01:56:09;;;;;;;10.93;3.90;;;0.80;99.90;;;;;;4872477;29;20033;-77
2021/04/09 01:58:37;;;;;;;5.60;3.47;;;0.70;99.90;;;;;;4872018;29;20041;-76
2021/04/09 02:01:06;;;;;;;8.97;4.00;;;0.60;99.90;;;;;;4872470;29;20187;-75
2021/04/09 02:03:32;;;;;;;7.28;3.35;;;0.60;99.90;;;;;;4891411;28;20490;-78
2021/04/09 02:05:57;;;;;;;8.13;3.90;;;0.60;99.90;;;;;;4966812;28;20043;-76
2021/04/09 02:08:24;;;;;;;6.40;3.57;;;0.50;99.90;;;;;;4968184;28;20031;-78
2021/04/09 02:10:51;;;;;;;7.33;3.87;;;0.40;99.90;;;;;;5008858;28;20068;-77
2021/04/09 02:13:16;;;;;;;6.80;3.73;;;0.30;99.90;;;;;;5047240;28;20048;-77
2021/04/09 02:15:43;;;;;;;7.10;3.60;;;0.20;99.90;;;;;;5048425;28;20029;-77
2021/04/09 02:18:09;;;;;;;6.53;3.73;;;0.20;99.90;;;;;;5045882;28;20037;-76
2021/04/09 02:20:35;;;;;;;7.63;3.90;;;0.20;99.90;;;;;;5048505;28;20025;-77
2021/04/09 02:23:01;;;;;;;7.77;3.83;;;0.10;99.90;;;;;;5048633;28;20083;-76
2021/04/09 02:25:26;;;;;;;6.73;3.83;;;0.10;99.90;;;;;;5045945;28;20039;-78
2021/04/09 02:27:52;;;;;;;5.37;3.47;;;0.10;99.90;;;;;;5043057;28;20403;-76
2021/04/09 02:30:21;;;;;;;7.43;3.57;;;0.00;99.90;;;;;;5041627;28;20039;-77
2021/04/09 02:32:47;;;;;;;7.50;3.57;;;0.00;99.90;;;;;;5044694;28;20053;-76
2021/04/09 02:35:15;;;;;;;6.10;3.60;;;-0.10;99.90;;;;;;5049483;28;20056;-76
2021/04/09 02:37:43;;;;;;;6.93;3.80;;;-0.10;99.90;;;;;;5056051;28;20451;-77
2021/04/09 02:40:16;;;;;;;6.67;3.93;;;-0.10;99.90;;;;;;5050860;28;20029;-77
2021/04/09 02:42:46;;;;;;;7.17;3.60;;;-0.20;99.90;;;;;;5046494;28;20068;-77
2021/04/09 02:45:14;;;;;;;9.40;3.67;;;-0.20;99.90;;;;;;5051856;28;20124;-77
2021/04/09 02:47:42;;;;;;;10.77;3.77;;;-0.20;99.90;;;;;;5051088;28;20040;-76
2021/04/09 02:50:08;;;;;;;7.53;3.90;;;-0.20;99.90;;;;;;5050542;28;20037;-76
2021/04/09 02:52:38;;;;;;;7.13;3.80;;;-0.30;99.90;;;;;;5051812;28;20033;-77
2021/04/09 02:55:17;;;;;;;8.77;3.53;;;-0.30;99.90;;;;;;5049618;28;20024;-77
2021/04/09 02:57:45;;;;;;;6.23;3.17;;;-0.30;99.90;;;;;;5050837;28;20036;-78
2021/04/09 03:00:11;;;;;;;6.27;3.40;;;-0.30;99.90;;;;;;5050212;28;20040;-76
2021/04/09 03:02:39;;;;;;;4.80;3.03;;;-0.40;99.90;;;;;;5049049;28;20029;-76
2021/04/09 03:05:06;;;;;;;6.33;3.00;;;-0.40;99.90;;;;;;5049474;28;20099;-77
2021/04/09 03:07:34;;;;;;;8.63;3.43;;;-0.40;99.90;;;;;;5049853;28;20511;-77
2021/04/09 03:10:00;;;;;;;4.37;2.80;;;-0.40;99.90;;;;;;5049522;28;20037;-76
2021/04/09 03:12:28;;;;;;;7.03;3.60;;;-0.40;99.90;;;;;;5049783;28;20522;-78
2021/04/09 03:14:55;;;;;;;7.23;2.93;;;-0.40;99.90;;;;;;5050558;28;20060;-77
2021/04/09 03:17:33;;;;;;;6.20;3.17;;;-0.40;99.90;;;;;;5048598;28;20029;-77
2021/04/09 03:19:59;;;;;;;5.80;3.00;;;-0.50;99.90;;;;;;5049775;28;20096;-76
2021/04/09 03:22:25;;;;;;;6.97;3.47;;;-0.50;99.90;;;;;;5048860;28;20112;-76
2021/04/09 03:24:50;;;;;;;4.87;2.97;;;-0.50;99.90;;;;;;5051529;28;20178;-77
2021/04/09 03:27:16;;;;;;;7.23;3.03;;;-0.50;99.90;;;;;;5048857;28;20090;-77
2021/04/09 03:29:43;;;;;;;6.93;2.87;;;-0.50;99.90;;;;;;5048428;28;20039;-77
2021/04/09 03:32:09;;;;;;;6.73;3.40;;;-0.50;99.90;;;;;;5049694;28;20079;-76
2021/04/09 03:34:35;;;;;;;8.67;3.13;;;-0.50;99.90;;;;;;5044834;28;20452;-77
2021/04/09 03:37:00;;;;;;;8.43;3.47;;;-0.50;99.90;;;;;;5049374;28;20079;-77
2021/04/09 03:39:26;;;;;;;7.73;3.40;;;-0.60;99.90;;;;;;5045669;28;20033;-76
2021/04/09 03:41:51;;;;;;;4.97;2.80;;;-0.50;99.90;;;;;;5053683;28;20013;-76
2021/04/09 03:44:17;;;;;;;6.90;3.30;;;-0.50;99.90;;;;;;5050843;28;20029;-77
2021/04/09 03:46:42;;;;;;;6.13;3.03;;;-0.50;99.90;;;;;;5047970;28;20028;-77
2021/04/09 03:49:08;;;;;;;6.10;3.07;;;-0.50;99.90;;;;;;5049122;28;20392;-76
2021/04/09 03:51:35;;;;;;;5.77;3.17;;;-0.50;99.90;;;;;;5031044;28;20407;-79
2021/04/09 03:54:00;;;;;;;8.60;3.13;;;-0.50;99.90;;;;;;5047883;28;20029;-77
2021/04/09 03:56:26;;;;;;;6.57;3.30;;;-0.50;99.90;;;;;;5050392;28;20051;-77
2021/04/09 03:58:51;;;;;;;5.43;3.10;;;-0.50;99.90;;;;;;5049820;28;20444;-77
2021/04/09 04:01:18;;;;;;;6.87;3.60;;;-0.50;99.90;;;;;;5050833;28;20036;-75
2021/04/09 04:03:46;;;;;;;6.37;3.00;;;-0.50;99.90;;;;;;5051058;28;20032;-79
2021/04/09 04:06:12;;;;;;;5.90;3.30;;;-0.60;99.90;;;;;;5048454;28;20032;-76
2021/04/09 04:08:37;;;;;;;7.20;3.03;;;-0.60;99.90;;;;;;5045731;28;20029;-77
2021/04/09 04:11:03;;;;;;;7.10;3.30;;;-0.60;99.90;;;;;;5047548;28;20095;-77
2021/04/09 04:13:28;;;;;;;8.30;3.47;;;-0.70;99.90;;;;;;5050956;28;20529;-77
2021/04/09 04:15:54;;;;;;;7.03;3.00;;;-0.70;99.90;;;;;;5047183;28;20447;-76
2021/04/09 04:18:19;;;;;;;4.97;2.73;;;-0.70;99.90;;;;;;5045992;28;20124;-76
2021/04/09 04:20:45;;;;;;;5.93;3.10;;;-0.70;99.90;;;;;;5047428;28;20115;-76
2021/04/09 04:23:11;;;;;;;8.70;3.07;;;-0.70;99.90;;;;;;5046966;28;20037;-76
2021/04/09 04:25:36;;;;;;;5.67;3.10;;;-0.80;99.90;;;;;;5049677;28;20128;-77
2021/04/09 04:28:02;;;;;;;6.73;3.53;;;-0.80;99.90;;;;;;5047412;28;20029;-77
2021/04/09 04:30:27;;;;;;;5.60;3.23;;;-0.70;99.90;;;;;;5047177;28;20279;-76
2021/04/09 04:32:53;;;;;;;6.37;3.10;;;-0.80;99.90;;;;;;5050344;28;20064;-75
2021/04/09 04:35:18;;;;;;;6.87;3.30;;;-0.80;99.90;;;;;;5049808;28;20048;-76
2021/04/09 04:37:44;;;;;;;6.53;3.10;;;-0.80;99.90;;;;;;5049629;28;20135;-77
2021/04/09 04:40:10;;;;;;;7.27;3.30;;;-0.80;99.90;;;;;;5030222;28;20037;-77
2021/04/09 04:42:35;;;;;;;7.87;3.20;;;-0.80;99.90;;;;;;5047310;28;20029;-77
2021/04/09 04:45:01;;;;;;;5.10;3.07;;;-0.80;99.90;;;;;;5048333;28;20035;-76
2021/04/09 04:47:27;;;;;;;5.73;3.27;;;-0.80;99.90;;;;;;5053561;28;20036;-79
2021/04/09 04:49:52;;;;;;;8.10;3.43;;;-0.80;99.90;;;;;;5053067;28;20048;-79
2021/04/09 04:52:18;;;;;;;7.77;3.37;;;-0.80;99.90;;;;;;5048748;28;20094;-77
2021/04/09 04:54:44;;;;;;;5.57;2.90;;;-0.70;99.90;;;;;;5050760;28;20045;-77
2021/04/09 04:57:09;;;;;;;7.03;2.93;;;-0.70;99.90;;;;;;5047448;28;20435;-77
2021/04/09 04:59:35;;;;;;;5.03;3.03;;;-0.60;99.90;;;;;;5050042;28;20568;-79
2021/04/09 05:02:00;;;;;;;7.67;2.97;;;-0.60;99.90;;;;;;5048143;28;20037;-78
2021/04/09 05:04:26;;;;;;;5.90;2.90;;;-0.60;99.90;;;;;;5049105;28;20094;-77
2021/04/09 05:06:51;;;;;;;7.20;3.03;;;-0.60;99.90;;;;;;5048577;28;20107;-79
2021/04/09 05:09:17;;;;;;;8.27;3.17;;;-0.50;99.90;;;;;;5049996;28;20476;-78
2021/04/09 05:11:42;;;;;;;6.07;3.03;;;-0.50;99.90;;;;;;5048950;28;20041;-79
2021/04/09 05:14:08;;;;;;;7.83;3.73;;;-0.40;99.90;;;;;;5048710;28;20037;-77
2021/04/09 05:16:33;;;;;;;6.37;3.10;;;-0.40;99.90;;;;;;5046042;28;20044;-78
2021/04/09 05:18:59;;;;;;;6.37;3.13;;;-0.30;99.90;;;;;;5049093;28;20037;-78
2021/04/09 05:21:26;;;;;;;7.17;2.90;;;-0.20;99.90;;;;;;5049415;28;20029;-79
2021/04/09 05:23:52;;;;;;;4.53;3.00;;;-0.10;99.90;;;;;;5048277;28;20216;-77
2021/04/09 05:26:17;;;;;;;4.50;2.90;;;0.10;99.90;;;;;;5048674;28;20472;-77
2021/04/09 05:28:43;;;;;;;6.17;3.00;;;0.10;99.90;;;;;;5046275;28;20465;-76
2021/04/09 05:31:08;;;;;;;9.03;2.87;;;0.20;99.90;;;;;;5047612;28;20430;-77
2021/04/09 05:33:34;;;;;;;7.83;2.93;;;0.40;99.90;;;;;;5046845;28;20041;-76
2021/04/09 05:35:59;;;;;;;4.03;2.43;;;0.60;99.90;;;;;;5048086;28;20021;-76
2021/04/09 05:38:25;;;;;;;6.20;2.70;;;0.80;99.90;;;;;;5047796;28;20040;-78
2021/04/09 05:40:50;;;;;;;6.33;2.80;;;1.00;99.90;;;;;;5048799;28;20421;-77
2021/04/09 05:43:16;;;;;;;5.23;2.63;;;1.30;99.90;;;;;;5030008;28;20495;-77
2021/04/09 05:45:42;;;;;;;6.82;2.50;;;2.00;99.90;;;;;;5044351;28;20104;-77
2021/04/09 05:48:08;;;;;;;7.85;2.20;;;2.90;99.90;;;;;;5047211;28;20049;-76
2021/04/09 05:50:35;;;;;;;8.10;2.50;;;3.70;99.90;;;;;;5041723;28;20052;-77
2021/04/09 05:53:02;;;;;;;11.38;2.63;;;4.30;99.90;;;;;;5050875;28;20035;-78
2021/04/09 05:55:27;;;;;;;6.85;2.20;;;4.70;99.90;;;;;;5045302;28;20025;-78
2021/04/09 05:57:53;;;;;;;6.72;2.72;;;5.20;99.90;;;;;;5046410;28;20079;-78
2021/04/09 06:00:20;;;;;;;4.38;2.10;;;5.60;99.90;;;;;;5043422;28;20028;-77
2021/04/09 06:02:45;;;;;;;6.35;2.20;;;5.90;99.90;;;;;;5047305;28;20041;-77
2021/04/09 06:05:11;;;;;;;7.25;2.67;;;6.10;99.90;;;;;;5047422;28;20079;-77
2021/04/09 06:07:37;;;;;;;7.35;2.50;;;6.20;99.90;;;;;;5046761;28;20025;-78
2021/04/09 06:10:04;;;;;;;9.48;2.90;;;6.40;99.90;;;;;;5046660;28;20028;-79
2021/04/09 06:12:30;;;;;;;7.10;2.08;;;6.50;99.90;;;;;;5050865;28;20072;-77
2021/04/09 06:14:55;;;;;;;5.28;2.10;;;6.50;99.90;;;;;;5051646;28;20068;-76
2021/04/09 06:17:21;;;;;;;4.60;1.63;;;6.40;99.90;;;;;;5045810;28;20029;-78
2021/04/09 06:19:50;;;;;;;5.57;2.47;;;6.40;99.90;;;;;;5055585;28;20040;-77
2021/04/09 06:22:16;;;;;;;11.27;2.83;;;6.50;99.90;;;;;;5050593;28;20158;-76
2021/04/09 06:24:42;;;;;;;6.40;2.63;;;6.80;99.90;;;;;;5051349;28;20146;-77
2021/04/09 06:27:09;;;;;;;4.40;1.80;;;7.20;99.90;;;;;;5049512;28;20017;-78
2021/04/09 06:29:34;;;;;;;5.30;1.92;;;7.40;99.90;;;;;;5052522;28;20044;-79
2021/04/09 06:32:00;;;;;;;5.95;1.98;;;7.40;99.90;;;;;;5050801;28;20037;-78
2021/04/09 06:34:25;;;;;;;4.53;1.80;;;7.70;99.60;;;;;;5051055;28;20029;-77
2021/04/09 06:36:51;;;;;;;4.68;1.83;;;7.60;99.50;;;;;;5046169;28;20036;-77
2021/04/09 06:39:16;;;;;;;6.05;2.17;;;7.30;99.30;;;;;;5032221;28;20036;-78
2021/04/09 06:41:42;;;;;;;5.25;2.08;;;7.00;99.60;;;;;;5044229;28;20033;-78
2021/04/09 06:44:09;;;;;;;4.47;1.90;;;6.90;99.60;;;;;;5045308;28;20498;-79
2021/04/09 06:46:35;;;;;;;6.80;1.98;;;6.70;99.40;;;;;;5033122;28;20091;-78
2021/04/09 06:49:00;;;;;;;4.53;1.83;;;6.50;99.40;;;;;;5031830;28;536476;-79
2021/04/09 06:51:27;;;;;;;5.78;1.98;;;6.50;99.50;;;;;;5051307;28;20083;-79
2021/04/09 06:53:53;;;;;;;6.60;1.80;;;6.60;99.10;;;;;;5051371;28;20030;-80
2021/04/09 06:56:20;;;;;;;3.38;1.40;;;6.60;99.00;;;;;;5046063;28;20150;-78
2021/04/09 06:58:47;;;;;;;4.22;1.52;;;6.60;98.50;;;;;;5059973;28;20235;-83
2021/04/09 07:01:16;;;;;;;6.88;1.70;;;6.70;98.90;;;;;;5054511;28;20074;-81
2021/04/09 07:03:42;;;;;;;4.47;1.40;;;6.80;98.40;;;;;;5052735;28;20061;-80
2021/04/09 07:06:08;;;;;;;5.90;1.40;;;6.80;98.20;;;;;;5053370;28;20542;-79
2021/04/09 07:08:43;;;;;;;8.02;1.70;;;6.90;98.10;;;;;;5030214;28;20104;-79
2021/04/09 07:11:09;;;;;;;3.78;1.40;;;7.10;98.20;;;;;;5052646;28;20033;-80
2021/04/09 07:13:50;;;;;;;4.55;1.45;;;7.10;97.60;;;;;;5052212;28;20760;-81
2021/04/09 07:16:16;;;;;;;3.00;1.25;;;7.20;97.30;;;;;;5052346;28;20033;-80
2021/04/09 07:19:04;;;;;;;3.33;1.40;;;7.20;96.90;;;;;;5053133;28;20036;-79
2021/04/09 07:21:32;;;;;;;5.68;1.17;;;7.30;97.10;;;;;;5053047;28;20033;-81
2021/04/09 07:24:13;;;;;;;2.83;1.40;;;7.40;96.20;;;;;;5053393;28;20029;-81
2021/04/09 07:26:46;;;;;;;2.97;1.08;;;7.40;96.50;;;;;;5049079;28;20082;-82
2021/04/09 07:29:31;;;;;;;2.72;1.10;;;7.60;96.20;;;;;;5054724;28;20104;-81
2021/04/09 07:31:57;;;;;;;2.72;1.00;;;7.60;96.20;;;;;;5053424;28;20480;-81
2021/04/09 07:34:23;;;;;;;2.83;1.25;;;7.70;95.60;;;;;;5053902;28;20040;-79
2021/04/09 07:36:55;;;;;;;3.17;1.38;;;7.80;95.80;;;;;;5052853;28;20029;-81
2021/04/09 07:39:36;;;;;;;4.80;1.40;;;7.90;95.70;;;;;;5053171;28;20084;-81
2021/04/09 07:42:10;;;;;;;1.65;0.98;;;8.00;95.50;;;;;;5054292;28;20064;-82
2021/04/09 07:44:39;;;;;;;2.25;1.15;;;8.20;95.50;;;;;;5055171;28;20071;-81
2021/04/09 07:47:14;;;;;;;2.40;1.17;;;8.20;94.90;;;;;;5052429;28;20040;-82
2021/04/09 07:49:41;;;;;;;7.25;1.48;;;8.30;95.10;;;;;;5055781;28;20370;-82
2021/04/09 07:52:14;;;;;;;6.38;1.48;;;8.50;95.60;;;;;;5054108;28;20048;-81
2021/04/09 07:54:40;;;;;;;7.55;1.42;;;8.70;95.80;;;;;;5052921;28;20025;-80
2021/04/09 07:57:07;;;;;;;3.45;1.02;;;8.90;95.40;;;;;;5033828;28;20041;-79
2021/04/09 07:59:43;;;;;;;5.07;1.30;;;9.10;93.70;;;;;;5052413;28;20047;-81
2021/04/09 08:02:09;;;;;;;4.55;1.20;;;9.40;94.30;;;;;;5052648;28;20033;-79
2021/04/09 08:04:39;;;;;;;4.85;1.20;;;9.60;93.10;;;;;;5056436;28;20029;-82
2021/04/09 08:07:05;;;;;;;3.20;1.30;;;9.70;92.80;;;;;;5049107;28;20037;-80
2021/04/09 08:09:47;;;;;;;2.88;1.20;;;9.90;91.90;;;;;;5052688;28;20055;-80
2021/04/09 08:12:34;;;;;;;3.58;1.15;;;10.00;91.40;;;;;;5051383;28;20091;-80
2021/04/09 08:15:18;;;;;;;3.22;1.25;;;10.30;91.40;;;;;;5052090;28;20029;-81
2021/04/09 08:17:59;;;;;;;5.90;1.33;;;10.40;90.50;;;;;;5051231;28;20028;-83
2021/04/09 08:20:26;;;;;;;4.03;1.23;;;10.40;90.50;;;;;;5048273;28;20040;-82
2021/04/09 08:22:54;;;;;;;7.38;1.80;;;10.40;90.60;;;;;;5053814;28;20031;-81
2021/04/09 08:25:21;;;;;;;2.80;1.00;;;10.60;90.20;;;;;;5057802;28;20091;-79
2021/04/09 08:27:46;;;;;;;7.53;1.55;;;10.70;89.00;;;;;;5032315;28;20459;-79
2021/04/09 08:30:14;;;;;;;6.03;1.20;;;10.80;89.10;;;;;;5050748;28;20028;-81
2021/04/09 08:32:40;;;;;;;7.18;1.60;;;10.90;90.50;;;;;;5049513;28;20083;-81
2021/04/09 08:35:08;;;;;;;5.10;1.50;;;11.10;90.40;;;;;;5050164;28;20021;-77
2021/04/09 08:37:34;;;;;;;4.10;1.40;;;11.10;89.20;;;;;;5048949;28;20538;-80
2021/04/09 08:40:01;;;;;;;6.28;1.30;;;11.20;88.20;;;;;;5050526;28;20029;-80
2021/04/09 08:42:27;;;;;;;4.47;1.30;;;11.30;88.50;;;;;;5049095;28;20095;-80
2021/04/09 08:44:53;;;;;;;4.75;1.40;;;11.30;81.90;;;;;;5049040;28;20939;-80
2021/04/09 08:47:20;;;;;;;3.17;1.17;;;11.30;79.30;;;;;;5047210;28;20115;-77
2021/04/09 08:49:47;;;;;;;3.40;1.20;;;11.20;79.40;;;;;;5048377;28;20081;-78
2021/04/09 08:52:15;;;;;;;1.83;1.20;;;11.20;77.80;;;;;;5048431;28;20045;-80
2021/04/09 08:54:49;;;;;;;3.25;1.50;;;11.20;78.50;;;;;;5048078;28;20025;-80
2021/04/09 08:57:32;;;;;;;3.30;1.30;;;11.50;78.60;;;;;;5049473;28;20033;-80
2021/04/09 09:00:08;;;;;;;2.38;1.00;;;11.40;78.90;;;;;;5043422;28;20048;-80
2021/04/09 09:02:46;;;;;;;2.25;0.98;;;11.40;78.00;;;;;;5044942;28;20091;-79
2021/04/09 09:05:17;;;;;;;2.17;1.10;;;11.60;77.40;;;;;;5047241;28;20033;-78
2021/04/09 09:07:43;;;;;;;1.70;1.17;;;11.50;76.10;;;;;;5047934;28;20120;-78
2021/04/09 09:10:27;;;;;;;5.45;1.27;;;11.60;76.90;;;;;;5031609;28;20467;-78
2021/04/09 09:13:05;;;;;;;2.30;1.27;;;11.70;76.30;;;;;;5045128;28;20040;-78
2021/04/09 09:15:45;;;;;;;3.65;1.58;;;11.80;76.10;;;;;;5044096;28;20029;-80
2021/04/09 09:18:22;;;;;;;3.40;1.30;;;11.80;78.20;;;;;;5051498;28;20027;-79
2021/04/09 09:21:10;;;;;;;2.88;1.67;;;12.00;77.40;;;;;;5051598;28;20025;-77
2021/04/09 09:23:48;;;;;;;5.47;1.50;;;12.30;78.40;;;;;;5050048;28;20025;-78
2021/04/09 09:26:38;;;;;;;3.38;1.58;;;12.40;74.00;;;;;;5033128;28;20435;-78
2021/04/09 09:29:23;;;;;;;3.65;1.52;;;12.20;73.40;;;;;;5035597;28;20087;-79
2021/04/09 09:31:48;;;;;;;3.22;1.50;;;12.20;71.40;;;;;;5046153;28;20061;-84
2021/04/09 09:34:27;;;;;;;3.30;1.70;;;12.30;72.60;;;;;;5049862;28;20175;-83
2021/04/09 09:37:18;;;;;;;6.20;1.60;;;12.60;74.10;;;;;;5051466;28;20085;-79
2021/04/09 09:40:02;;;;;;;3.72;1.63;;;12.80;71.80;;;;;;5029581;28;20819;-79
2021/04/09 09:42:28;;;;;;;5.03;1.80;;;12.70;72.40;;;;;;5045266;28;20032;-77
2021/04/09 09:45:04;;;;;;;3.75;1.60;;;12.80;72.80;;;;;;5047917;28;20028;-79
2021/04/09 09:47:35;;;;;;;3.67;1.52;;;12.90;71.70;;;;;;5039676;28;20041;-79
2021/04/09 09:50:00;;;;;;;2.60;1.42;;;12.80;71.50;;;;;;5038195;28;20034;-79
2021/04/09 09:53:05;;;;;;;4.72;1.65;;;12.80;71.60;;;;;;5039032;28;20049;-79
2021/04/09 09:55:41;;;;;;;4.97;1.50;;;13.00;72.90;;;;;;5041712;28;20037;-79
2021/04/09 09:58:28;;;;;;;3.45;1.65;;;13.20;71.70;;;;;;5042346;28;20029;-78
2021/04/09 10:00:55;;;;;;;3.75;1.67;;;13.40;73.10;;;;;;5044890;28;20086;-78
2021/04/09 10:03:30;;;;;;;3.00;1.60;;;13.40;71.10;;;;;;5039989;28;20037;-78
2021/04/09 10:06:08;;;;;;;4.20;1.70;;;13.50;70.00;;;;;;5041683;28;20116;-79
2021/04/09 10:08:36;;;;;;;3.15;1.40;;;13.60;69.30;;;;;;5041194;28;20496;-79
2021/04/09 10:11:06;;;;;;;4.88;1.77;;;13.70;67.60;;;;;;5042966;28;20339;-79
2021/04/09 10:13:38;;;;;;;4.32;1.50;;;13.70;68.60;;;;;;5041612;28;20540;-77
2021/04/09 10:16:08;;;;;;;3.15;1.50;;;13.80;67.80;;;;;;5041891;28;20634;-79
2021/04/09 10:18:36;;;;;;;3.92;1.40;;;13.70;67.70;;;;;;5029043;28;20127;-81
2021/04/09 10:21:30;;;;;;;3.95;1.20;;;13.70;66.00;;;;;;5043359;28;20104;-77
2021/04/09 10:24:17;;;;;;;3.08;1.50;;;13.70;68.20;;;;;;5047852;28;20091;-81
2021/04/09 10:26:49;;;;;;;5.70;1.50;;;13.70;67.20;;;;;;5040367;28;20036;-81
2021/04/09 10:29:35;;;;;;;4.25;1.73;;;13.80;67.60;;;;;;5042755;28;20032;-85
2021/04/09 10:32:02;;;;;;;2.20;1.40;;;13.80;63.60;;;;;;5048269;28;20412;-81
2021/04/09 10:34:31;;;;;;;4.03;1.10;;;13.90;66.80;;;;;;5041353;28;20087;-81
2021/04/09 10:36:57;;;;;;;1.95;1.02;;;14.10;67.00;;;;;;5040666;28;20040;-83
2021/04/09 10:39:23;;;;;;;5.05;2.17;;;14.10;65.60;;;;;;5040410;28;20171;-84
2021/04/09 10:41:51;;;;;;;3.33;1.60;;;14.30;66.80;;;;;;5043986;28;20029;-83
2021/04/09 10:44:20;;;;;;;2.97;1.58;;;14.60;68.30;;;;;;5045327;28;20041;-82
2021/04/09 10:46:56;;;;;;;4.63;1.50;;;14.40;68.40;;;;;;5040982;28;20087;-85
2021/04/09 10:49:24;;;;;;;2.75;1.50;;;14.50;64.60;;;;;;5045158;28;20412;-83
2021/04/09 10:52:13;;;;;;;2.28;1.17;;;14.70;66.20;;;;;;5047383;28;20031;-84
2021/04/09 10:54:40;;;;;;;3.33;1.40;;;14.70;63.10;;;;;;5049213;28;20033;-84
2021/04/09 10:57:09;;;;;;;3.60;1.13;;;14.80;65.10;;;;;;5048127;28;20130;-83
2021/04/09 10:59:50;;;;;;;2.55;1.30;;;15.00;61.90;;;;;;5051120;28;20052;-83
2021/04/09 11:02:21;;;;;;;1.83;1.10;;;14.90;62.50;;;;;;5046925;28;20030;-84
2021/04/09 11:04:52;;;;;;;2.38;1.50;;;15.00;62.90;;;;;;5047630;28;20059;-85
2021/04/09 11:07:18;;;;;;;3.17;1.13;;;15.20;61.70;;;;;;5048374;28;20033;-83
2021/04/09 11:09:47;;;;;;;2.22;1.15;;;15.30;62.60;;;;;;5032797;28;20037;-83
2021/04/09 11:12:18;;;;;;;2.83;1.42;;;15.50;62.80;;;;;;5048113;28;20072;-82
2021/04/09 11:14:44;;;;;;;4.05;1.63;;;15.30;61.90;;;;;;5057763;28;20075;-84
2021/04/09 11:17:30;;;;;;;2.92;1.30;;;15.30;62.30;;;;;;5058057;28;20032;-82
2021/04/09 11:20:00;;;;;;;3.45;1.30;;;15.40;61.20;;;;;;5053277;28;20055;-80
2021/04/09 11:22:27;;;;;;;2.92;1.00;;;15.50;60.70;;;;;;5047646;28;20053;-81
2021/04/09 11:25:01;;;;;;;4.10;1.45;;;15.60;60.70;;;;;;5045920;28;20022;-84
2021/04/09 11:27:36;;;;;;;3.08;1.25;;;15.30;60.80;;;;;;5047708;28;20056;-81
2021/04/09 11:30:13;;;;;;;4.22;1.30;;;15.30;61.30;;;;;;5047699;28;20025;-81
2021/04/09 11:32:45;;;;;;;3.30;1.27;;;15.20;61.90;;;;;;5045971;28;20045;-82
2021/04/09 11:35:13;;;;;;;2.75;1.20;;;15.40;63.40;;;;;;5048739;28;20033;-77
2021/04/09 11:37:47;;;;;;;2.65;1.30;;;15.40;61.80;;;;;;5032726;28;20032;-79
2021/04/09 11:40:40;;;;;;;3.22;1.48;;;15.40;61.50;;;;;;5048587;28;20075;-79
2021/04/09 11:43:07;;;;;;;4.13;1.30;;;15.40;61.60;;;;;;5046832;28;20160;-80
2021/04/09 11:45:45;;;;;;;3.30;1.30;;;15.50;61.40;;;;;;5052761;28;20025;-81
2021/04/09 11:48:23;;;;;;;5.22;1.83;;;15.60;61.90;;;;;;5045114;28;20041;-80
2021/04/09 11:50:51;;;;;;;3.88;1.48;;;15.80;63.30;;;;;;5050700;28;20056;-80
2021/04/09 11:53:17;;;;;;;2.35;1.30;;;16.00;62.20;;;;;;5050262;28;20073;-79
2021/04/09 11:55:47;;;;;;;3.88;1.45;;;16.10;62.20;;;;;;5051238;28;20126;-80
2021/04/09 11:58:25;;;;;;;3.60;1.30;;;16.20;62.30;;;;;;5049875;28;20029;-84
2021/04/09 12:00:55;;;;;;;3.58;1.50;;;16.50;62.70;;;;;;5050503;28;20025;-78
2021/04/09 12:03:20;;;;;;;3.53;1.50;;;16.60;62.10;;;;;;5048869;28;20032;-79
2021/04/09 12:05:46;;;;;;;4.05;1.25;;;16.70;61.20;;;;;;5049134;28;20055;-80
2021/04/09 12:08:11;;;;;;;2.85;1.10;;;16.80;62.50;;;;;;5050700;28;20032;-76
2021/04/09 12:10:37;;;;;;;3.00;1.50;;;16.80;63.60;;;;;;5047267;28;20055;-75
2021/04/09 12:13:03;;;;;;;4.25;1.52;;;17.00;64.90;;;;;;5048742;28;20558;-75
2021/04/09 12:15:29;;;;;;;5.18;1.50;;;17.30;64.10;;;;;;5049434;28;20115;-78
2021/04/09 12:17:55;;;;;;;3.75;1.20;;;17.30;62.20;;;;;;5049855;28;20195;-76
2021/04/09 12:20:24;;;;;;;4.50;1.40;;;17.10;60.60;;;;;;5030933;28;20049;-77
2021/04/09 12:22:50;;;;;;;3.60;1.10;;;17.00;59.50;;;;;;5051634;28;20100;-77
2021/04/09 12:25:17;;;;;;;3.00;1.30;;;16.90;58.60;;;;;;5049340;28;20114;-75
2021/04/09 12:27:44;;;;;;;7.75;1.88;;;16.50;57.40;;;;;;5049211;28;20064;-76
2021/04/09 12:30:12;;;;;;;5.50;1.40;;;16.60;59.20;;;;;;5047574;28;20028;-75
2021/04/09 12:32:38;;;;;;;4.68;1.40;;;16.60;57.50;;;;;;5046259;28;20045;-77
2021/04/09 12:35:05;;;;;;;3.92;1.27;;;16.80;59.30;;;;;;5044029;28;20388;-76
2021/04/09 12:37:30;;;;;;;3.28;1.27;;;16.80;57.50;;;;;;5048367;28;20025;-77
2021/04/09 12:39:56;;;;;;;2.38;1.35;;;16.70;56.70;;;;;;5048872;28;20040;-77
2021/04/09 12:42:22;;;;;;;7.40;1.88;;;16.80;57.30;;;;;;5049835;28;20119;-77
2021/04/09 12:44:48;;;;;;;3.13;1.60;;;17.00;58.70;;;;;;5038742;28;20037;-78
2021/04/09 12:47:14;;;;;;;4.03;1.45;;;17.00;57.50;;;;;;5047942;28;20052;-78
2021/04/09 12:49:39;;;;;;;2.75;1.40;;;16.90;59.50;;;;;;5048656;28;20074;-78
2021/04/09 12:52:07;;;;;;;4.50;1.40;;;16.90;57.50;;;;;;5043712;28;20044;-81
2021/04/09 12:54:33;;;;;;;4.05;1.20;;;16.80;58.60;;;;;;5044809;28;20029;-79
2021/04/09 12:56:58;;;;;;;2.58;1.30;;;16.50;56.60;;;;;;5051669;28;20079;-85
2021/04/09 12:59:24;;;;;;;2.67;1.58;;;16.50;57.20;;;;;;5051223;28;20055;-85
2021/04/09 13:01:50;;;;;;;3.00;1.52;;;16.50;58.30;;;;;;5042155;28;20037;-84